sensor_id;sensor_type;location;lat;lon;timestamp;temperature;humidity
10644;DHT22;5370;50.132;8.626;2023-03-01T00:00:39;0.60;61.30
10644;DHT22;5370;50.132;8.626;2023-03-01T00:03:05;0.70;61.30
10644;DHT22;5370;50.132;8.626;2023-03-01T00:05:30;0.60;61.20
10644;DHT22;5370;50.132;8.626;2023-03-01T00:07:56;0.70;61.30
10644;DHT22;5370;50.132;8.626;2023-03-01T00:10:21;0.70;61.30
10644;DHT22;5370;50.132;8.626;2023-03-01T00:12:47;0.70;61.30
10644;DHT22;5370;50.132;8.626;2023-03-01T00:15:12;0.70;61.30
10644;DHT22;5370;50.132;8.626;2023-03-01T00:17:38;0.70;61.40
10644;DHT22;5370;50.132;8.626;2023-03-01T00:20:04;0.70;61.30
10644;DHT22;5370;50.132;8.626;2023-03-01T00:22:35;0.70;61.30
10644;DHT22;5370;50.132;8.626;2023-03-01T00:25:00;0.70;61.20
10644;DHT22;5370;50.132;8.626;2023-03-01T00:27:26;0.70;61.20
10644;DHT22;5370;50.132;8.626;2023-03-01T00:29:52;0.70;61.20
10644;DHT22;5370;50.132;8.626;2023-03-01T00:32:17;0.70;61.20
10644;DHT22;5370;50.132;8.626;2023-03-01T00:34:43;0.70;61.30
10644;DHT22;5370;50.132;8.626;2023-03-01T00:37:22;0.70;61.20
10644;DHT22;5370;50.132;8.626;2023-03-01T00:39:48;0.70;61.30
10644;DHT22;5370;50.132;8.626;2023-03-01T00:42:14;0.70;61.40
10644;DHT22;5370;50.132;8.626;2023-03-01T00:44:40;0.70;61.40
10644;DHT22;5370;50.132;8.626;2023-03-01T00:47:05;0.70;61.40
10644;DHT22;5370;50.132;8.626;2023-03-01T00:49:31;0.70;61.50
10644;DHT22;5370;50.132;8.626;2023-03-01T00:51:56;0.70;61.50
10644;DHT22;5370;50.132;8.626;2023-03-01T00:54:22;0.70;62.20
10644;DHT22;5370;50.132;8.626;2023-03-01T00:56:48;0.70;61.60
10644;DHT22;5370;50.132;8.626;2023-03-01T00:59:13;0.70;61.70
10644;DHT22;5370;50.132;8.626;2023-03-01T01:01:39;0.70;61.80
10644;DHT22;5370;50.132;8.626;2023-03-01T01:04:10;0.70;61.70
10644;DHT22;5370;50.132;8.626;2023-03-01T01:06:42;0.70;61.90
10644;DHT22;5370;50.132;8.626;2023-03-01T01:09:09;0.80;62.10
10644;DHT22;5370;50.132;8.626;2023-03-01T01:11:45;0.70;62.10
10644;DHT22;5370;50.132;8.626;2023-03-01T01:14:11;0.60;62.10
10644;DHT22;5370;50.132;8.626;2023-03-01T01:16:37;0.70;62.30
10644;DHT22;5370;50.132;8.626;2023-03-01T01:19:02;0.70;62.40
10644;DHT22;5370;50.132;8.626;2023-03-01T01:21:28;0.70;62.50
10644;DHT22;5370;50.132;8.626;2023-03-01T01:23:54;0.70;62.50
10644;DHT22;5370;50.132;8.626;2023-03-01T01:26:22;0.70;62.50
10644;DHT22;5370;50.132;8.626;2023-03-01T01:28:49;0.80;62.60
10644;DHT22;5370;50.132;8.626;2023-03-01T01:31:15;0.70;62.50
10644;DHT22;5370;50.132;8.626;2023-03-01T01:33:41;0.70;62.50
10644;DHT22;5370;50.132;8.626;2023-03-01T01:36:07;0.70;62.40
10644;DHT22;5370;50.132;8.626;2023-03-01T01:38:34;0.70;62.40
10644;DHT22;5370;50.132;8.626;2023-03-01T01:41:00;0.80;62.50
10644;DHT22;5370;50.132;8.626;2023-03-01T01:43:38;0.70;62.40
10644;DHT22;5370;50.132;8.626;2023-03-01T01:46:25;0.80;62.50
10644;DHT22;5370;50.132;8.626;2023-03-01T01:48:57;0.80;62.40
10644;DHT22;5370;50.132;8.626;2023-03-01T01:51:28;0.80;62.30
10644;DHT22;5370;50.132;8.626;2023-03-01T01:54:06;0.80;62.30
10644;DHT22;5370;50.132;8.626;2023-03-01T01:56:33;0.80;62.30
10644;DHT22;5370;50.132;8.626;2023-03-01T01:58:59;0.80;62.40
10644;DHT22;5370;50.132;8.626;2023-03-01T02:01:26;0.80;62.50
10644;DHT22;5370;50.132;8.626;2023-03-01T02:03:52;0.80;62.50
10644;DHT22;5370;50.132;8.626;2023-03-01T02:06:37;0.80;62.40
10644;DHT22;5370;50.132;8.626;2023-03-01T02:09:12;0.80;62.40
10644;DHT22;5370;50.132;8.626;2023-03-01T02:11:39;0.80;62.50
10644;DHT22;5370;50.132;8.626;2023-03-01T02:14:05;0.80;62.40
10644;DHT22;5370;50.132;8.626;2023-03-01T02:16:31;0.80;62.40
10644;DHT22;5370;50.132;8.626;2023-03-01T02:18:58;0.80;62.50
10644;DHT22;5370;50.132;8.626;2023-03-01T02:25:12;0.80;62.60
10644;DHT22;5370;50.132;8.626;2023-03-01T02:30:28;0.80;62.90
10644;DHT22;5370;50.132;8.626;2023-03-01T02:32:56;0.80;62.90
10644;DHT22;5370;50.132;8.626;2023-03-01T02:35:32;0.80;62.90
10644;DHT22;5370;50.132;8.626;2023-03-01T02:38:00;0.80;62.90
10644;DHT22;5370;50.132;8.626;2023-03-01T02:40:29;0.80;62.80
10644;DHT22;5370;50.132;8.626;2023-03-01T02:42:58;0.80;62.70
10644;DHT22;5370;50.132;8.626;2023-03-01T02:45:24;0.90;62.80
10644;DHT22;5370;50.132;8.626;2023-03-01T02:47:54;0.90;62.70
10644;DHT22;5370;50.132;8.626;2023-03-01T02:53:33;0.90;62.70
10644;DHT22;5370;50.132;8.626;2023-03-01T02:56:01;0.90;62.70
10644;DHT22;5370;50.132;8.626;2023-03-01T02:58:27;0.90;62.60
10644;DHT22;5370;50.132;8.626;2023-03-01T03:00:52;0.90;62.60
10644;DHT22;5370;50.132;8.626;2023-03-01T03:03:20;0.90;62.70
10644;DHT22;5370;50.132;8.626;2023-03-01T03:05:46;0.80;62.60
10644;DHT22;5370;50.132;8.626;2023-03-01T03:08:11;0.80;62.60
10644;DHT22;5370;50.132;8.626;2023-03-01T03:10:40;0.80;63.40
10644;DHT22;5370;50.132;8.626;2023-03-01T03:13:12;0.80;62.70
10644;DHT22;5370;50.132;8.626;2023-03-01T03:15:38;0.80;62.70
10644;DHT22;5370;50.132;8.626;2023-03-01T03:18:06;0.80;62.70
10644;DHT22;5370;50.132;8.626;2023-03-01T03:20:33;0.80;62.70
10644;DHT22;5370;50.132;8.626;2023-03-01T03:22:59;0.80;62.70
10644;DHT22;5370;50.132;8.626;2023-03-01T03:25:26;0.80;62.70
10644;DHT22;5370;50.132;8.626;2023-03-01T03:27:52;0.80;62.60
10644;DHT22;5370;50.132;8.626;2023-03-01T03:30:23;0.80;62.60
10644;DHT22;5370;50.132;8.626;2023-03-01T03:32:49;0.80;62.60
10644;DHT22;5370;50.132;8.626;2023-03-01T03:35:23;0.80;62.60
10644;DHT22;5370;50.132;8.626;2023-03-01T03:37:50;0.80;62.60
10644;DHT22;5370;50.132;8.626;2023-03-01T03:40:35;0.80;62.60
10644;DHT22;5370;50.132;8.626;2023-03-01T03:43:02;0.80;62.60
10644;DHT22;5370;50.132;8.626;2023-03-01T03:45:28;0.80;62.70
10644;DHT22;5370;50.132;8.626;2023-03-01T03:47:53;0.70;62.70
10644;DHT22;5370;50.132;8.626;2023-03-01T03:50:19;0.70;62.70
10644;DHT22;5370;50.132;8.626;2023-03-01T03:52:44;0.70;63.00
10644;DHT22;5370;50.132;8.626;2023-03-01T03:55:11;0.70;63.10
10644;DHT22;5370;50.132;8.626;2023-03-01T03:57:41;0.70;63.10
10644;DHT22;5370;50.132;8.626;2023-03-01T04:00:11;0.70;63.10
10644;DHT22;5370;50.132;8.626;2023-03-01T04:02:41;0.70;63.20
10644;DHT22;5370;50.132;8.626;2023-03-01T04:05:08;0.70;63.10
10644;DHT22;5370;50.132;8.626;2023-03-01T04:07:35;0.70;63.10
10644;DHT22;5370;50.132;8.626;2023-03-01T04:10:03;0.70;63.10
10644;DHT22;5370;50.132;8.626;2023-03-01T04:12:28;0.70;63.10
10644;DHT22;5370;50.132;8.626;2023-03-01T04:14:54;0.70;63.20
10644;DHT22;5370;50.132;8.626;2023-03-01T04:17:19;0.60;63.30
10644;DHT22;5370;50.132;8.626;2023-03-01T04:19:45;0.60;63.30
10644;DHT22;5370;50.132;8.626;2023-03-01T04:22:14;0.60;63.20
10644;DHT22;5370;50.132;8.626;2023-03-01T04:24:42;0.60;63.20
10644;DHT22;5370;50.132;8.626;2023-03-01T04:27:09;0.60;63.20
10644;DHT22;5370;50.132;8.626;2023-03-01T04:29:34;0.60;63.20
10644;DHT22;5370;50.132;8.626;2023-03-01T04:32:00;0.60;63.40
10644;DHT22;5370;50.132;8.626;2023-03-01T04:34:25;0.60;63.40
10644;DHT22;5370;50.132;8.626;2023-03-01T04:36:53;0.50;63.30
10644;DHT22;5370;50.132;8.626;2023-03-01T04:39:19;0.50;63.30
10644;DHT22;5370;50.132;8.626;2023-03-01T04:41:44;0.50;63.40
10644;DHT22;5370;50.132;8.626;2023-03-01T04:44:11;0.50;63.30
10644;DHT22;5370;50.132;8.626;2023-03-01T04:46:36;0.50;63.30
10644;DHT22;5370;50.132;8.626;2023-03-01T04:49:03;0.50;63.40
10644;DHT22;5370;50.132;8.626;2023-03-01T04:51:29;0.50;63.40
10644;DHT22;5370;50.132;8.626;2023-03-01T04:53:54;0.50;63.40
10644;DHT22;5370;50.132;8.626;2023-03-01T04:56:20;0.50;63.40
10644;DHT22;5370;50.132;8.626;2023-03-01T04:58:48;0.60;63.40
10644;DHT22;5370;50.132;8.626;2023-03-01T05:01:17;0.50;63.30
10644;DHT22;5370;50.132;8.626;2023-03-01T05:03:47;0.50;63.30
10644;DHT22;5370;50.132;8.626;2023-03-01T05:06:14;0.50;63.30
10644;DHT22;5370;50.132;8.626;2023-03-01T05:08:40;0.60;63.30
10644;DHT22;5370;50.132;8.626;2023-03-01T05:11:06;0.60;63.30
10644;DHT22;5370;50.132;8.626;2023-03-01T05:13:34;0.60;63.20
10644;DHT22;5370;50.132;8.626;2023-03-01T05:16:01;0.60;63.10
10644;DHT22;5370;50.132;8.626;2023-03-01T05:18:29;0.60;63.10
10644;DHT22;5370;50.132;8.626;2023-03-01T05:21:01;0.60;63.00
10644;DHT22;5370;50.132;8.626;2023-03-01T05:23:29;0.60;63.00
10644;DHT22;5370;50.132;8.626;2023-03-01T05:25:58;0.60;63.00
10644;DHT22;5370;50.132;8.626;2023-03-01T05:28:25;0.60;63.10
10644;DHT22;5370;50.132;8.626;2023-03-01T05:30:51;0.60;63.00
10644;DHT22;5370;50.132;8.626;2023-03-01T05:33:17;0.60;63.20
10644;DHT22;5370;50.132;8.626;2023-03-01T05:35:44;0.60;63.40
10644;DHT22;5370;50.132;8.626;2023-03-01T05:38:11;0.60;63.40
10644;DHT22;5370;50.132;8.626;2023-03-01T05:40:41;0.60;63.40
10644;DHT22;5370;50.132;8.626;2023-03-01T05:43:07;0.60;63.40
10644;DHT22;5370;50.132;8.626;2023-03-01T05:45:36;0.50;63.40
10644;DHT22;5370;50.132;8.626;2023-03-01T05:48:01;0.50;63.50
10644;DHT22;5370;50.132;8.626;2023-03-01T05:50:29;0.50;63.60
10644;DHT22;5370;50.132;8.626;2023-03-01T05:53:03;0.50;63.60
10644;DHT22;5370;50.132;8.626;2023-03-01T05:55:31;0.50;63.70
10644;DHT22;5370;50.132;8.626;2023-03-01T05:58:01;0.50;63.70
10644;DHT22;5370;50.132;8.626;2023-03-01T06:00:28;0.50;63.70
10644;DHT22;5370;50.132;8.626;2023-03-01T06:02:55;0.40;63.70
10644;DHT22;5370;50.132;8.626;2023-03-01T06:05:21;0.40;63.80
10644;DHT22;5370;50.132;8.626;2023-03-01T06:07:47;0.40;63.80
10644;DHT22;5370;50.132;8.626;2023-03-01T06:10:14;0.40;63.90
10644;DHT22;5370;50.132;8.626;2023-03-01T06:12:41;0.40;64.00
10644;DHT22;5370;50.132;8.626;2023-03-01T06:15:08;0.40;64.00
10644;DHT22;5370;50.132;8.626;2023-03-01T06:17:36;0.40;64.00
10644;DHT22;5370;50.132;8.626;2023-03-01T06:20:04;0.40;64.00
10644;DHT22;5370;50.132;8.626;2023-03-01T06:22:30;0.40;64.00
10644;DHT22;5370;50.132;8.626;2023-03-01T06:24:55;0.50;64.10
10644;DHT22;5370;50.132;8.626;2023-03-01T06:27:21;0.40;64.00
10644;DHT22;5370;50.132;8.626;2023-03-01T06:29:46;0.40;64.00
10644;DHT22;5370;50.132;8.626;2023-03-01T06:32:12;0.50;64.00
10644;DHT22;5370;50.132;8.626;2023-03-01T06:34:37;0.50;64.00
10644;DHT22;5370;50.132;8.626;2023-03-01T06:37:03;0.50;63.90
10644;DHT22;5370;50.132;8.626;2023-03-01T06:39:31;0.50;63.80
10644;DHT22;5370;50.132;8.626;2023-03-01T06:41:56;0.60;63.70
10644;DHT22;5370;50.132;8.626;2023-03-01T06:44:22;0.60;63.60
10644;DHT22;5370;50.132;8.626;2023-03-01T06:46:47;0.70;63.60
10644;DHT22;5370;50.132;8.626;2023-03-01T06:49:13;0.70;63.50
10644;DHT22;5370;50.132;8.626;2023-03-01T06:51:38;0.80;63.50
10644;DHT22;5370;50.132;8.626;2023-03-01T06:54:04;0.80;64.10
10644;DHT22;5370;50.132;8.626;2023-03-01T06:56:30;0.90;63.30
10644;DHT22;5370;50.132;8.626;2023-03-01T06:58:56;0.90;63.20
10644;DHT22;5370;50.132;8.626;2023-03-01T07:01:21;1.00;63.20
10644;DHT22;5370;50.132;8.626;2023-03-01T07:03:47;1.10;63.00
10644;DHT22;5370;50.132;8.626;2023-03-01T07:06:12;1.10;62.70
10644;DHT22;5370;50.132;8.626;2023-03-01T07:08:38;1.20;62.60
10644;DHT22;5370;50.132;8.626;2023-03-01T07:11:04;1.30;62.60
10644;DHT22;5370;50.132;8.626;2023-03-01T07:13:31;1.40;62.50
10644;DHT22;5370;50.132;8.626;2023-03-01T07:15:56;1.40;62.30
10644;DHT22;5370;50.132;8.626;2023-03-01T07:18:22;1.50;62.10
10644;DHT22;5370;50.132;8.626;2023-03-01T07:20:48;1.50;62.00
10644;DHT22;5370;50.132;8.626;2023-03-01T07:23:13;1.50;61.80
10644;DHT22;5370;50.132;8.626;2023-03-01T07:25:39;1.50;61.70
10644;DHT22;5370;50.132;8.626;2023-03-01T07:28:05;1.50;61.50
10644;DHT22;5370;50.132;8.626;2023-03-01T07:30:30;1.60;61.80
10644;DHT22;5370;50.132;8.626;2023-03-01T07:32:57;1.70;61.70
10644;DHT22;5370;50.132;8.626;2023-03-01T07:35:23;1.70;61.40
10644;DHT22;5370;50.132;8.626;2023-03-01T07:37:49;1.80;61.20
10644;DHT22;5370;50.132;8.626;2023-03-01T07:40:15;1.90;61.10
10644;DHT22;5370;50.132;8.626;2023-03-01T07:42:41;2.00;60.90
10644;DHT22;5370;50.132;8.626;2023-03-01T07:45:07;2.00;60.50
10644;DHT22;5370;50.132;8.626;2023-03-01T07:47:33;2.10;60.50
10644;DHT22;5370;50.132;8.626;2023-03-01T07:49:58;2.10;60.00
10644;DHT22;5370;50.132;8.626;2023-03-01T07:52:24;2.10;60.50
10644;DHT22;5370;50.132;8.626;2023-03-01T07:54:49;2.10;59.90
10644;DHT22;5370;50.132;8.626;2023-03-01T07:57:15;2.20;60.00
10644;DHT22;5370;50.132;8.626;2023-03-01T07:59:41;2.30;59.90
10644;DHT22;5370;50.132;8.626;2023-03-01T08:02:07;2.30;59.70
10644;DHT22;5370;50.132;8.626;2023-03-01T08:04:33;2.40;59.60
10644;DHT22;5370;50.132;8.626;2023-03-01T08:06:58;2.50;59.30
10644;DHT22;5370;50.132;8.626;2023-03-01T08:09:24;2.60;59.00
10644;DHT22;5370;50.132;8.626;2023-03-01T08:11:50;2.60;58.90
10644;DHT22;5370;50.132;8.626;2023-03-01T08:14:16;2.70;59.00
10644;DHT22;5370;50.132;8.626;2023-03-01T08:16:41;2.80;58.80
10644;DHT22;5370;50.132;8.626;2023-03-01T08:19:08;2.90;58.70
10644;DHT22;5370;50.132;8.626;2023-03-01T08:21:34;2.90;58.60
10644;DHT22;5370;50.132;8.626;2023-03-01T08:24:01;3.20;58.80
10644;DHT22;5370;50.132;8.626;2023-03-01T08:26:26;3.40;58.40
10644;DHT22;5370;50.132;8.626;2023-03-01T08:28:52;3.70;58.10
10644;DHT22;5370;50.132;8.626;2023-03-01T08:33:47;4.20;56.90
10644;DHT22;5370;50.132;8.626;2023-03-01T08:36:27;4.40;55.90
10644;DHT22;5370;50.132;8.626;2023-03-01T08:38:53;4.50;55.40
10644;DHT22;5370;50.132;8.626;2023-03-01T08:41:19;4.60;54.80
10644;DHT22;5370;50.132;8.626;2023-03-01T08:43:45;4.70;54.70
10644;DHT22;5370;50.132;8.626;2023-03-01T08:46:11;4.80;54.50
10644;DHT22;5370;50.132;8.626;2023-03-01T08:48:37;5.10;54.80
10644;DHT22;5370;50.132;8.626;2023-03-01T08:51:08;5.30;54.30
10644;DHT22;5370;50.132;8.626;2023-03-01T08:53:34;5.60;53.80
10644;DHT22;5370;50.132;8.626;2023-03-01T08:56:00;5.70;52.70
10644;DHT22;5370;50.132;8.626;2023-03-01T08:58:28;5.60;52.30
10644;DHT22;5370;50.132;8.626;2023-03-01T09:00:53;5.50;52.70
10644;DHT22;5370;50.132;8.626;2023-03-01T09:03:19;5.50;53.00
10644;DHT22;5370;50.132;8.626;2023-03-01T09:05:44;5.50;53.10
10644;DHT22;5370;50.132;8.626;2023-03-01T09:08:11;5.50;52.70
10644;DHT22;5370;50.132;8.626;2023-03-01T09:10:39;5.40;52.40
10644;DHT22;5370;50.132;8.626;2023-03-01T09:13:05;5.20;52.40
10644;DHT22;5370;50.132;8.626;2023-03-01T09:15:31;5.10;52.80
10644;DHT22;5370;50.132;8.626;2023-03-01T09:17:56;5.10;53.30
10644;DHT22;5370;50.132;8.626;2023-03-01T09:20:22;5.40;53.40
10644;DHT22;5370;50.132;8.626;2023-03-01T09:22:47;5.80;52.90
10644;DHT22;5370;50.132;8.626;2023-03-01T09:25:13;6.10;51.50
10644;DHT22;5370;50.132;8.626;2023-03-01T09:27:38;6.30;50.90
10644;DHT22;5370;50.132;8.626;2023-03-01T09:30:04;6.40;50.60
10644;DHT22;5370;50.132;8.626;2023-03-01T09:32:30;6.40;50.40
10644;DHT22;5370;50.132;8.626;2023-03-01T09:34:56;6.30;50.20
10644;DHT22;5370;50.132;8.626;2023-03-01T09:37:32;6.10;50.00
10644;DHT22;5370;50.132;8.626;2023-03-01T09:39:58;6.10;50.60
10644;DHT22;5370;50.132;8.626;2023-03-01T09:42:24;6.00;50.30
10644;DHT22;5370;50.132;8.626;2023-03-01T09:45:11;5.80;50.40
10644;DHT22;5370;50.132;8.626;2023-03-01T09:47:41;5.60;50.40
10644;DHT22;5370;50.132;8.626;2023-03-01T09:50:16;5.40;50.60
10644;DHT22;5370;50.132;8.626;2023-03-01T09:52:46;5.20;51.10
10644;DHT22;5370;50.132;8.626;2023-03-01T09:55:20;5.10;51.70
10644;DHT22;5370;50.132;8.626;2023-03-01T09:57:56;5.10;51.90
10644;DHT22;5370;50.132;8.626;2023-03-01T10:00:42;5.10;51.70
10644;DHT22;5370;50.132;8.626;2023-03-01T10:03:13;5.10;51.70
10644;DHT22;5370;50.132;8.626;2023-03-01T10:06:12;5.10;51.90
10644;DHT22;5370;50.132;8.626;2023-03-01T10:08:55;5.10;51.80
10644;DHT22;5370;50.132;8.626;2023-03-01T10:11:22;5.10;52.00
10644;DHT22;5370;50.132;8.626;2023-03-01T10:14:01;5.20;52.00
10644;DHT22;5370;50.132;8.626;2023-03-01T10:16:47;5.20;52.10
10644;DHT22;5370;50.132;8.626;2023-03-01T10:19:33;5.30;52.20
10644;DHT22;5370;50.132;8.626;2023-03-01T10:22:17;5.50;52.00
10644;DHT22;5370;50.132;8.626;2023-03-01T10:24:44;5.60;51.80
10644;DHT22;5370;50.132;8.626;2023-03-01T10:27:23;5.60;51.40
10644;DHT22;5370;50.132;8.626;2023-03-01T10:30:13;5.60;51.10
10644;DHT22;5370;50.132;8.626;2023-03-01T10:32:43;5.70;51.10
10644;DHT22;5370;50.132;8.626;2023-03-01T10:35:17;5.70;51.30
10644;DHT22;5370;50.132;8.626;2023-03-01T10:38:06;5.70;51.20
10644;DHT22;5370;50.132;8.626;2023-03-01T10:40:33;5.80;51.00
10644;DHT22;5370;50.132;8.626;2023-03-01T10:43:02;5.70;51.10
10644;DHT22;5370;50.132;8.626;2023-03-01T10:45:38;5.80;51.10
10644;DHT22;5370;50.132;8.626;2023-03-01T10:48:19;5.90;50.80
10644;DHT22;5370;50.132;8.626;2023-03-01T10:50:51;5.90;50.70
10644;DHT22;5370;50.132;8.626;2023-03-01T10:53:41;5.90;50.60
10644;DHT22;5370;50.132;8.626;2023-03-01T10:56:14;5.90;50.90
10644;DHT22;5370;50.132;8.626;2023-03-01T10:59:00;6.10;51.00
10644;DHT22;5370;50.132;8.626;2023-03-01T11:01:28;6.10;50.70
10644;DHT22;5370;50.132;8.626;2023-03-01T11:06:35;6.40;50.20
10644;DHT22;5370;50.132;8.626;2023-03-01T11:09:21;6.50;49.60
10644;DHT22;5370;50.132;8.626;2023-03-01T11:11:59;6.50;49.70
10644;DHT22;5370;50.132;8.626;2023-03-01T11:14:33;6.50;49.60
10644;DHT22;5370;50.132;8.626;2023-03-01T11:19:40;6.70;49.60
10644;DHT22;5370;50.132;8.626;2023-03-01T11:22:12;6.80;49.00
10644;DHT22;5370;50.132;8.626;2023-03-01T11:24:46;6.80;48.80
10644;DHT22;5370;50.132;8.626;2023-03-01T11:30:05;7.00;48.60
10644;DHT22;5370;50.132;8.626;2023-03-01T11:35:40;7.10;48.80
10644;DHT22;5370;50.132;8.626;2023-03-01T11:40:51;7.40;48.40
10644;DHT22;5370;50.132;8.626;2023-03-01T11:51:53;7.60;47.00
10644;DHT22;5370;50.132;8.626;2023-03-01T12:00:34;7.80;46.70
10644;DHT22;5370;50.132;8.626;2023-03-01T12:26:14;8.60;44.50
10644;DHT22;5370;50.132;8.626;2023-03-01T12:42:31;8.80;42.50
10644;DHT22;5370;50.132;8.626;2023-03-01T12:45:28;8.80;42.00
10644;DHT22;5370;50.132;8.626;2023-03-01T12:50:48;8.90;42.00
10644;DHT22;5370;50.132;8.626;2023-03-01T12:53:39;8.90;42.10
10644;DHT22;5370;50.132;8.626;2023-03-01T12:56:08;9.00;41.30
10644;DHT22;5370;50.132;8.626;2023-03-01T13:01:36;9.00;40.70
10644;DHT22;5370;50.132;8.626;2023-03-01T13:11:56;9.10;41.60
10644;DHT22;5370;50.132;8.626;2023-03-01T13:16:49;9.20;41.90
10644;DHT22;5370;50.132;8.626;2023-03-01T13:19:25;9.20;42.00
10644;DHT22;5370;50.132;8.626;2023-03-01T13:21:53;9.20;41.60
10644;DHT22;5370;50.132;8.626;2023-03-01T13:24:41;9.10;41.80
10644;DHT22;5370;50.132;8.626;2023-03-01T13:30:01;9.10;42.30
10644;DHT22;5370;50.132;8.626;2023-03-01T13:32:35;9.20;42.00
10644;DHT22;5370;50.132;8.626;2023-03-01T13:37:42;9.30;41.40
10644;DHT22;5370;50.132;8.626;2023-03-01T13:42:44;9.30;41.20
10644;DHT22;5370;50.132;8.626;2023-03-01T13:48:07;9.30;41.20
10644;DHT22;5370;50.132;8.626;2023-03-01T13:50:38;9.20;41.10
10644;DHT22;5370;50.132;8.626;2023-03-01T13:53:14;9.30;41.40
10644;DHT22;5370;50.132;8.626;2023-03-01T13:55:47;9.30;41.20
10644;DHT22;5370;50.132;8.626;2023-03-01T13:58:31;9.40;41.50
10644;DHT22;5370;50.132;8.626;2023-03-01T14:01:01;9.40;41.10
10644;DHT22;5370;50.132;8.626;2023-03-01T14:03:28;9.40;41.10
10644;DHT22;5370;50.132;8.626;2023-03-01T14:06:01;9.50;41.00
10644;DHT22;5370;50.132;8.626;2023-03-01T14:08:29;9.50;40.60
10644;DHT22;5370;50.132;8.626;2023-03-01T14:11:34;9.40;40.40
10644;DHT22;5370;50.132;8.626;2023-03-01T14:14:18;9.30;40.80
10644;DHT22;5370;50.132;8.626;2023-03-01T14:19:56;9.50;41.50
10644;DHT22;5370;50.132;8.626;2023-03-01T14:22:30;9.50;41.20
10644;DHT22;5370;50.132;8.626;2023-03-01T14:24:59;9.50;40.80
10644;DHT22;5370;50.132;8.626;2023-03-01T14:27:32;9.40;40.80
10644;DHT22;5370;50.132;8.626;2023-03-01T14:30:21;9.40;41.00
10644;DHT22;5370;50.132;8.626;2023-03-01T14:32:57;9.40;40.90
10644;DHT22;5370;50.132;8.626;2023-03-01T14:35:32;9.40;40.80
10644;DHT22;5370;50.132;8.626;2023-03-01T14:37:58;9.40;40.90
10644;DHT22;5370;50.132;8.626;2023-03-01T14:40:29;9.40;40.60
10644;DHT22;5370;50.132;8.626;2023-03-01T14:42:56;9.30;40.80
10644;DHT22;5370;50.132;8.626;2023-03-01T14:45:25;9.30;41.00
10644;DHT22;5370;50.132;8.626;2023-03-01T14:47:51;9.30;41.30
10644;DHT22;5370;50.132;8.626;2023-03-01T14:50:30;9.30;42.00
10644;DHT22;5370;50.132;8.626;2023-03-01T14:53:01;9.30;41.60
10644;DHT22;5370;50.132;8.626;2023-03-01T14:55:34;9.30;41.40
10644;DHT22;5370;50.132;8.626;2023-03-01T14:58:03;9.30;41.40
10644;DHT22;5370;50.132;8.626;2023-03-01T15:00:31;9.20;41.30
10644;DHT22;5370;50.132;8.626;2023-03-01T15:03:04;9.20;41.40
10644;DHT22;5370;50.132;8.626;2023-03-01T15:05:35;9.20;41.50
10644;DHT22;5370;50.132;8.626;2023-03-01T15:08:02;9.20;41.40
10644;DHT22;5370;50.132;8.626;2023-03-01T15:10:31;9.10;41.00
10644;DHT22;5370;50.132;8.626;2023-03-01T15:13:11;9.10;40.70
10644;DHT22;5370;50.132;8.626;2023-03-01T15:15:45;9.00;40.70
10644;DHT22;5370;50.132;8.626;2023-03-01T15:20:40;8.90;40.60
10644;DHT22;5370;50.132;8.626;2023-03-01T15:23:21;8.90;40.80
10644;DHT22;5370;50.132;8.626;2023-03-01T15:25:47;8.90;40.60
10644;DHT22;5370;50.132;8.626;2023-03-01T15:28:23;8.90;40.60
10644;DHT22;5370;50.132;8.626;2023-03-01T15:30:56;8.90;40.70
10644;DHT22;5370;50.132;8.626;2023-03-01T15:35:53;8.80;40.80
10644;DHT22;5370;50.132;8.626;2023-03-01T15:38:34;8.80;40.90
10644;DHT22;5370;50.132;8.626;2023-03-01T15:41:03;8.80;40.90
10644;DHT22;5370;50.132;8.626;2023-03-01T15:43:45;8.70;41.10
10644;DHT22;5370;50.132;8.626;2023-03-01T15:46:20;8.70;41.30
10644;DHT22;5370;50.132;8.626;2023-03-01T15:48:49;8.70;41.50
10644;DHT22;5370;50.132;8.626;2023-03-01T15:51:18;8.70;41.50
10644;DHT22;5370;50.132;8.626;2023-03-01T15:53:51;8.70;41.50
10644;DHT22;5370;50.132;8.626;2023-03-01T15:56:17;8.70;41.50
10644;DHT22;5370;50.132;8.626;2023-03-01T15:58:43;8.60;41.60
10644;DHT22;5370;50.132;8.626;2023-03-01T16:01:13;8.60;41.80
10644;DHT22;5370;50.132;8.626;2023-03-01T16:03:39;8.60;42.00
10644;DHT22;5370;50.132;8.626;2023-03-01T16:06:05;8.60;42.00
10644;DHT22;5370;50.132;8.626;2023-03-01T16:08:31;8.50;42.00
10644;DHT22;5370;50.132;8.626;2023-03-01T16:10:56;8.50;42.00
10644;DHT22;5370;50.132;8.626;2023-03-01T16:13:22;8.40;41.60
10644;DHT22;5370;50.132;8.626;2023-03-01T16:15:47;8.40;41.70
10644;DHT22;5370;50.132;8.626;2023-03-01T16:18:13;8.30;41.90
10644;DHT22;5370;50.132;8.626;2023-03-01T16:20:39;8.20;42.00
10644;DHT22;5370;50.132;8.626;2023-03-01T16:23:07;8.10;42.20
10644;DHT22;5370;50.132;8.626;2023-03-01T16:25:34;8.10;42.60
10644;DHT22;5370;50.132;8.626;2023-03-01T16:28:00;8.00;42.70
10644;DHT22;5370;50.132;8.626;2023-03-01T16:30:30;7.90;42.60
10644;DHT22;5370;50.132;8.626;2023-03-01T16:32:55;7.90;42.60
10644;DHT22;5370;50.132;8.626;2023-03-01T16:35:21;7.80;43.00
10644;DHT22;5370;50.132;8.626;2023-03-01T16:37:47;7.70;42.60
10644;DHT22;5370;50.132;8.626;2023-03-01T16:40:21;7.60;42.80
10644;DHT22;5370;50.132;8.626;2023-03-01T16:42:48;7.60;42.90
10644;DHT22;5370;50.132;8.626;2023-03-01T16:45:14;7.50;43.00
10644;DHT22;5370;50.132;8.626;2023-03-01T16:47:39;7.50;43.20
10644;DHT22;5370;50.132;8.626;2023-03-01T16:50:05;7.40;43.30
10644;DHT22;5370;50.132;8.626;2023-03-01T16:52:30;7.30;43.50
10644;DHT22;5370;50.132;8.626;2023-03-01T16:54:56;7.20;43.70
10644;DHT22;5370;50.132;8.626;2023-03-01T16:57:22;7.20;44.50
10644;DHT22;5370;50.132;8.626;2023-03-01T16:59:53;7.10;43.90
10644;DHT22;5370;50.132;8.626;2023-03-01T17:02:19;7.00;44.10
10644;DHT22;5370;50.132;8.626;2023-03-01T17:04:45;6.90;44.10
10644;DHT22;5370;50.132;8.626;2023-03-01T17:07:16;6.90;44.40
10644;DHT22;5370;50.132;8.626;2023-03-01T17:09:42;6.80;44.50
10644;DHT22;5370;50.132;8.626;2023-03-01T17:12:07;6.70;44.60
10644;DHT22;5370;50.132;8.626;2023-03-01T17:14:33;6.70;44.70
10644;DHT22;5370;50.132;8.626;2023-03-01T17:16:59;6.60;45.40
10644;DHT22;5370;50.132;8.626;2023-03-01T17:19:26;6.60;45.40
10644;DHT22;5370;50.132;8.626;2023-03-01T17:21:52;6.60;45.90
10644;DHT22;5370;50.132;8.626;2023-03-01T17:24:18;6.60;45.70
10644;DHT22;5370;50.132;8.626;2023-03-01T17:26:43;6.60;45.30
10644;DHT22;5370;50.132;8.626;2023-03-01T17:29:09;6.50;45.20
10644;DHT22;5370;50.132;8.626;2023-03-01T17:31:35;6.50;45.20
10644;DHT22;5370;50.132;8.626;2023-03-01T17:34:01;6.40;45.30
10644;DHT22;5370;50.132;8.626;2023-03-01T17:36:27;6.30;45.40
10644;DHT22;5370;50.132;8.626;2023-03-01T17:38:52;6.20;45.50
10644;DHT22;5370;50.132;8.626;2023-03-01T17:41:18;6.20;45.80
10644;DHT22;5370;50.132;8.626;2023-03-01T17:43:45;6.10;45.80
10644;DHT22;5370;50.132;8.626;2023-03-01T17:46:10;6.10;46.10
10644;DHT22;5370;50.132;8.626;2023-03-01T17:48:36;6.00;46.20
10644;DHT22;5370;50.132;8.626;2023-03-01T17:51:06;6.00;46.40
10644;DHT22;5370;50.132;8.626;2023-03-01T17:53:32;5.90;46.50
10644;DHT22;5370;50.132;8.626;2023-03-01T17:56:03;5.80;46.60
10644;DHT22;5370;50.132;8.626;2023-03-01T17:58:29;5.80;46.60
10644;DHT22;5370;50.132;8.626;2023-03-01T18:00:55;5.70;46.70
10644;DHT22;5370;50.132;8.626;2023-03-01T18:03:21;5.60;46.90
10644;DHT22;5370;50.132;8.626;2023-03-01T18:05:47;5.60;47.00